createdAt,value
2019-05-01T00:01:33.432Z,8.90
2019-05-01T00:04:04.339Z,9.00
2019-05-01T00:06:38.423Z,9.20
2019-05-01T00:09:07.160Z,9.20
2019-05-01T00:11:33.484Z,9.30
2019-05-01T00:13:59.725Z,9.20
2019-05-01T00:16:26.044Z,9.20
2019-05-01T00:18:52.330Z,9.20
2019-05-01T00:21:18.557Z,9.20
2019-05-01T00:23:44.899Z,9.30
2019-05-01T00:26:11.117Z,9.20
2019-05-01T00:28:37.334Z,9.10
2019-05-01T00:31:03.876Z,9.00
2019-05-01T00:33:30.091Z,8.70
2019-05-01T00:35:56.349Z,8.40
2019-05-01T00:38:22.572Z,8.20
2019-05-01T00:40:48.818Z,8.00
2019-05-01T00:43:15.148Z,7.80
2019-05-01T00:45:41.380Z,7.70
2019-05-01T00:48:07.500Z,7.70
2019-05-01T00:50:33.639Z,7.80
2019-05-01T00:52:59.910Z,8.00
2019-05-01T00:55:43.431Z,8.20
2019-05-01T00:58:28.033Z,8.40
2019-05-01T01:01:12.692Z,8.30
2019-05-01T01:03:40.221Z,8.40
2019-05-01T01:06:06.564Z,8.50
2019-05-01T01:08:32.893Z,8.50
2019-05-01T01:10:59.168Z,8.30
2019-05-01T01:13:25.376Z,8.30
2019-05-01T01:15:51.504Z,8.10
2019-05-01T01:18:17.752Z,7.90
2019-05-01T01:20:43.996Z,7.90
2019-05-01T01:23:10.850Z,7.80
2019-05-01T01:25:37.624Z,7.70
2019-05-01T01:28:04.089Z,7.80
2019-05-01T01:30:30.412Z,8.00
2019-05-01T01:32:56.827Z,8.00
2019-05-01T01:35:23.180Z,8.10
2019-05-01T01:37:49.399Z,8.30
2019-05-01T01:40:16.244Z,8.40
2019-05-01T01:42:43.571Z,8.50
2019-05-01T01:45:11.915Z,8.50
2019-05-01T01:47:40.246Z,8.80
2019-05-01T01:50:06.716Z,8.90
2019-05-01T01:52:33.564Z,9.10
2019-05-01T01:54:59.922Z,8.90
2019-05-01T01:57:26.348Z,8.90
2019-05-01T02:00:14.470Z,9.00
2019-05-01T02:02:42.701Z,8.90
2019-05-01T02:05:11.029Z,8.90
2019-05-01T02:07:37.390Z,9.00
2019-05-01T02:10:05.920Z,9.00
2019-05-01T02:12:32.148Z,9.00
2019-05-01T02:14:58.397Z,9.30
2019-05-01T02:17:24.747Z,9.60
2019-05-01T02:19:51.060Z,9.80
2019-05-01T02:22:17.400Z,9.60
2019-05-01T02:24:43.648Z,9.50
2019-05-01T02:27:18.286Z,9.30
2019-05-01T02:29:49.244Z,9.10
2019-05-01T02:32:17.310Z,9.10
2019-05-01T02:34:44.857Z,9.20
2019-05-01T02:37:14.013Z,9.10
2019-05-01T02:39:41.349Z,9.20
2019-05-01T02:42:11.374Z,9.00
2019-05-01T02:44:39.390Z,9.20
2019-05-01T02:47:09.413Z,9.50
2019-05-01T02:49:49.583Z,9.50
2019-05-01T02:52:16.785Z,9.70
2019-05-01T02:54:45.730Z,9.70
2019-05-01T02:57:15.663Z,9.70
2019-05-01T02:59:45.716Z,9.50
2019-05-01T03:02:11.896Z,9.20
2019-05-01T03:04:38.822Z,9.10
2019-05-01T03:07:06.686Z,9.00
2019-05-01T03:09:33.688Z,9.10
2019-05-01T03:12:02.740Z,9.00
2019-05-01T03:14:32.764Z,9.00
2019-05-01T03:17:01.485Z,8.90
2019-05-01T03:19:29.897Z,8.70
2019-05-01T03:21:58.185Z,8.60
2019-05-01T03:24:26.813Z,8.50
2019-05-01T03:26:53.529Z,8.50
2019-05-01T03:29:20.990Z,8.60
2019-05-01T03:32:14.526Z,8.50
2019-05-01T03:34:16.138Z,8.40
2019-05-01T03:36:42.348Z,8.40
2019-05-01T03:39:08.591Z,8.50
2019-05-01T03:41:34.906Z,8.40
2019-05-01T03:44:02.458Z,8.40
2019-05-01T03:46:48.636Z,8.40
2019-05-01T03:49:15.893Z,8.50
2019-05-01T03:51:42.522Z,8.40
2019-05-01T03:54:09.503Z,8.30
2019-05-01T03:56:36.702Z,8.10
2019-05-01T03:59:03.337Z,7.90
2019-05-01T04:01:32.177Z,7.90
2019-05-01T04:04:09.313Z,8.00
2019-05-01T04:06:35.743Z,8.00
2019-05-01T04:09:04.269Z,7.70
2019-05-01T04:11:30.633Z,7.70
2019-05-01T04:13:56.946Z,7.60
2019-05-01T04:16:23.376Z,7.60
2019-05-01T04:18:49.697Z,7.50
2019-05-01T04:21:17.825Z,7.40
2019-05-01T04:23:44.396Z,7.40
2019-05-01T04:26:10.809Z,7.40
2019-05-01T04:28:39.654Z,7.30
2019-05-01T04:31:11.961Z,7.20
2019-05-01T04:33:40.216Z,7.10
2019-05-01T04:36:09.029Z,7.00
2019-05-01T04:38:35.269Z,7.20
2019-05-01T04:41:01.591Z,7.40
2019-05-01T04:43:28.134Z,7.50
2019-05-01T04:45:55.348Z,7.50
2019-05-01T04:48:22.069Z,7.50
2019-05-01T04:50:48.429Z,7.30
2019-05-01T04:53:14.961Z,7.10
2019-05-01T04:55:41.910Z,6.90
2019-05-01T04:58:09.023Z,7.00
2019-05-01T05:00:35.960Z,7.10
2019-05-01T05:03:05.364Z,7.20
2019-05-01T05:05:32.224Z,7.10
2019-05-01T05:07:58.656Z,7.00
2019-05-01T05:10:25.504Z,7.20
2019-05-01T05:12:54.028Z,7.40
2019-05-01T05:15:40.717Z,7.60
2019-05-01T05:18:07.929Z,7.70
2019-05-01T05:20:34.252Z,7.90
2019-05-01T05:23:01.101Z,7.90
2019-05-01T05:25:27.428Z,7.90
2019-05-01T05:27:55.385Z,7.90
2019-05-01T05:30:23.200Z,8.10
2019-05-01T05:32:51.954Z,8.00
2019-05-01T05:35:21.072Z,7.90
2019-05-01T05:37:54.961Z,8.00
2019-05-01T05:40:21.676Z,8.10
2019-05-01T05:42:48.028Z,8.30
2019-05-01T05:45:14.937Z,8.30
2019-05-01T05:47:41.361Z,8.30
2019-05-01T05:50:09.607Z,8.60
2019-05-01T05:52:42.207Z,8.70
2019-05-01T05:55:16.653Z,8.80
2019-05-01T05:57:57.685Z,8.90
2019-05-01T06:00:42.473Z,9.00
2019-05-01T06:03:31.617Z,9.20
2019-05-01T06:06:15.787Z,9.40
2019-05-01T06:08:45.204Z,9.80
2019-05-01T06:11:21.504Z,9.90
2019-05-01T06:13:56.481Z,10.10
2019-05-01T06:16:40.447Z,10.20
2019-05-01T06:19:25.092Z,10.10
2019-05-01T06:22:05.074Z,9.90
2019-05-01T06:24:35.872Z,10.20
2019-05-01T06:27:02.367Z,10.70
2019-05-01T06:29:31.112Z,11.30
2019-05-01T06:31:58.782Z,12.40
2019-05-01T06:34:28.934Z,13.20
2019-05-01T06:36:54.783Z,13.70
2019-05-01T06:39:21.139Z,14.50
2019-05-01T06:41:47.656Z,14.40
2019-05-01T06:44:17.102Z,14.20
2019-05-01T06:46:48.762Z,14.80
2019-05-01T06:49:34.132Z,15.70
2019-05-01T06:52:03.443Z,15.70
2019-05-01T06:54:31.231Z,15.40
2019-05-01T06:57:00.272Z,15.50
2019-05-01T06:59:31.476Z,16.40
2019-05-01T07:01:58.412Z,16.20
2019-05-01T07:04:26.780Z,15.60
2019-05-01T07:06:53.004Z,15.10
2019-05-01T07:09:27.800Z,15.50
2019-05-01T07:11:52.798Z,15.40
2019-05-01T07:14:17.633Z,14.90
2019-05-01T07:16:44.875Z,14.60
2019-05-01T07:19:11.779Z,14.90
2019-05-01T07:21:38.223Z,16.70
2019-05-01T07:24:04.936Z,18.00
2019-05-01T07:26:31.227Z,18.20
2019-05-01T07:29:06.050Z,18.80
2019-05-01T07:31:33.798Z,20.20
2019-05-01T07:34:00.025Z,20.20
2019-05-01T07:36:26.437Z,21.40
2019-05-01T07:38:53.192Z,23.20
2019-05-01T07:41:19.508Z,22.90
2019-05-01T07:43:54.876Z,21.30
2019-05-01T07:46:30.014Z,20.40
2019-05-01T07:48:57.348Z,21.80
2019-05-01T07:51:23.760Z,21.40
2019-05-01T07:53:51.091Z,21.70
2019-05-01T07:56:18.572Z,20.60
2019-05-01T07:58:47.499Z,20.90
2019-05-01T08:01:18.304Z,20.30
2019-05-01T08:03:44.191Z,19.50
2019-05-01T08:06:10.599Z,20.20
2019-05-01T08:08:39.603Z,19.80
2019-05-01T08:11:09.862Z,19.50
2019-05-01T08:13:34.961Z,20.00
2019-05-01T08:16:02.066Z,20.10
2019-05-01T08:18:37.043Z,20.60
2019-05-01T08:21:14.173Z,20.70
2019-05-01T08:23:42.667Z,22.30
2019-05-01T08:26:08.944Z,23.00
2019-05-01T08:28:41.349Z,23.20
2019-05-01T08:31:27.759Z,21.80
2019-05-01T08:33:57.477Z,21.60
2019-05-01T08:36:23.826Z,21.00
2019-05-01T08:38:50.035Z,21.50
2019-05-01T08:41:16.208Z,22.10
2019-05-01T08:43:42.556Z,20.90
2019-05-01T08:46:16.480Z,19.90
2019-05-01T08:48:43.370Z,19.00
2019-05-01T08:51:09.697Z,17.90
2019-05-01T08:53:36.047Z,18.80
2019-05-01T08:56:02.686Z,20.40
2019-05-01T08:58:28.928Z,21.50
2019-05-01T09:00:55.144Z,24.30
2019-05-01T09:03:21.283Z,23.70
2019-05-01T09:05:47.408Z,24.20
2019-05-01T09:08:13.657Z,22.70
2019-05-01T09:10:39.868Z,22.10
2019-05-01T09:13:06.012Z,22.10
2019-05-01T09:15:32.324Z,21.10
2019-05-01T09:17:58.596Z,19.90
2019-05-01T09:20:24.917Z,18.90
2019-05-01T09:22:51.133Z,18.50
2019-05-01T09:25:19.385Z,18.80
2019-05-01T09:27:50.501Z,20.10
2019-05-01T09:30:21.972Z,22.40
2019-05-01T09:32:54.097Z,25.00
2019-05-01T09:35:16.354Z,25.80
2019-05-01T09:37:43.080Z,27.00
2019-05-01T09:40:10.409Z,27.60
2019-05-01T09:42:37.367Z,26.60
2019-05-01T09:45:07.026Z,26.30
2019-05-01T09:47:33.439Z,27.70
2019-05-01T09:49:59.553Z,29.90
2019-05-01T09:52:30.433Z,28.30
2019-05-01T09:55:04.319Z,24.40
2019-05-01T09:57:30.567Z,21.50
2019-05-01T09:59:56.711Z,19.50
2019-05-01T10:02:23.441Z,19.00
2019-05-01T10:04:49.643Z,19.60
2019-05-01T10:07:15.900Z,20.00
2019-05-01T10:09:42.121Z,20.30
2019-05-01T10:12:11.525Z,20.50
2019-05-01T10:14:37.477Z,19.90
2019-05-01T10:17:04.450Z,19.10
2019-05-01T10:19:30.660Z,18.70
2019-05-01T10:21:57.844Z,19.00
2019-05-01T10:24:24.926Z,18.60
2019-05-01T10:26:55.109Z,18.20
2019-05-01T10:29:25.879Z,18.10
2019-05-01T10:32:05.115Z,18.40
2019-05-01T10:34:38.741Z,18.90
2019-05-01T10:37:04.336Z,18.70
2019-05-01T10:39:30.561Z,17.80
2019-05-01T10:41:56.830Z,17.40
2019-05-01T10:44:23.059Z,16.90
2019-05-01T10:47:09.179Z,17.00
2019-05-01T10:49:35.397Z,16.90
2019-05-01T10:52:13.563Z,16.80
2019-05-01T10:54:29.610Z,17.10
2019-05-01T10:56:58.833Z,17.60
2019-05-01T10:59:23.921Z,18.30
2019-05-01T11:01:52.095Z,19.10
2019-05-01T11:04:18.453Z,19.30
2019-05-01T11:06:44.777Z,19.30
2019-05-01T11:09:11.225Z,19.60
2019-05-01T11:11:37.452Z,18.80
2019-05-01T11:14:04.117Z,18.40
2019-05-01T11:16:30.371Z,18.00
2019-05-01T11:18:56.839Z,18.20
2019-05-01T11:21:23.056Z,18.20
2019-05-01T11:23:49.290Z,17.80
2019-05-01T11:26:15.542Z,18.00
2019-05-01T11:28:41.779Z,18.00
2019-05-01T11:31:09.933Z,18.10
2019-05-01T11:33:56.562Z,17.80
2019-05-01T11:36:31.572Z,18.10
2019-05-01T11:39:16.384Z,18.00
2019-05-01T11:41:47.321Z,18.60
2019-05-01T11:44:13.740Z,20.50
2019-05-01T11:46:40.009Z,23.00
2019-05-01T11:49:06.233Z,24.70
2019-05-01T11:51:32.472Z,24.60
2019-05-01T11:53:58.726Z,25.70
2019-05-01T11:56:24.976Z,27.20
2019-05-01T11:58:51.229Z,28.10
2019-05-01T12:01:19.377Z,28.60
2019-05-01T12:03:45.608Z,25.80
2019-05-01T12:06:22.331Z,25.50
2019-05-01T12:08:39.881Z,25.80
2019-05-01T12:11:08.045Z,28.80
2019-05-01T12:13:43.542Z,31.50
2019-05-01T12:16:07.313Z,28.90
2019-05-01T12:18:33.543Z,24.90
2019-05-01T12:20:59.752Z,24.40
2019-05-01T12:23:26.164Z,26.40
2019-05-01T12:25:52.437Z,28.80
2019-05-01T12:28:19.046Z,30.80
2019-05-01T12:30:45.665Z,32.70
2019-05-01T12:33:12.327Z,31.10
2019-05-01T12:35:38.575Z,30.00
2019-05-01T12:38:04.872Z,26.90
2019-05-01T12:40:31.386Z,25.20
2019-05-01T12:42:58.123Z,24.30
2019-05-01T12:45:24.716Z,22.90
2019-05-01T12:47:52.838Z,24.70
2019-05-01T12:50:19.354Z,27.90
2019-05-01T12:53:03.693Z,29.60
2019-05-01T12:55:50.301Z,28.40
2019-05-01T12:58:16.639Z,30.00
2019-05-01T13:00:49.270Z,30.90
2019-05-01T13:03:15.566Z,31.90
2019-05-01T13:05:41.782Z,30.70
2019-05-01T13:08:08.273Z,28.10
2019-05-01T13:10:34.884Z,25.40
2019-05-01T13:13:02.612Z,23.10
2019-05-01T13:15:28.924Z,21.40
2019-05-01T13:17:55.169Z,20.70
2019-05-01T13:20:21.441Z,20.10
2019-05-01T13:22:48.097Z,20.20
2019-05-01T13:25:14.472Z,20.10
2019-05-01T13:27:59.775Z,19.60
2019-05-01T13:30:39.272Z,19.20
2019-05-01T13:33:05.897Z,19.10
2019-05-01T13:35:32.503Z,19.60
2019-05-01T13:37:58.791Z,19.00
2019-05-01T13:40:25.281Z,19.10
2019-05-01T13:42:52.021Z,19.30
2019-05-01T13:45:20.616Z,19.00
2019-05-01T13:47:46.797Z,19.30
2019-05-01T13:50:13.570Z,19.20
2019-05-01T13:52:39.884Z,19.60
2019-05-01T13:55:06.812Z,20.10
2019-05-01T13:57:33.525Z,19.30
2019-05-01T13:59:59.776Z,19.60
2019-05-01T14:02:26.478Z,19.30
2019-05-01T14:04:52.873Z,19.20
2019-05-01T14:07:20.627Z,19.30
2019-05-01T14:09:47.365Z,19.80
2019-05-01T14:12:13.637Z,20.50
2019-05-01T14:14:40.250Z,20.60
2019-05-01T14:17:06.996Z,21.10
2019-05-01T14:19:35.252Z,21.50
2019-05-01T14:22:20.197Z,21.20
2019-05-01T14:25:06.377Z,20.80
2019-05-01T14:27:32.800Z,20.70
2019-05-01T14:29:59.399Z,20.90
2019-05-01T14:32:26.054Z,20.70
2019-05-01T14:34:52.811Z,20.00
2019-05-01T14:37:29.139Z,19.50
2019-05-01T14:39:47.730Z,18.90
2019-05-01T14:42:14.240Z,18.90
2019-05-01T14:44:40.906Z,19.30
2019-05-01T14:47:07.513Z,19.10
2019-05-01T14:49:33.734Z,18.70
2019-05-01T14:52:00.603Z,18.60
2019-05-01T14:54:27.012Z,19.00
2019-05-01T14:56:53.309Z,19.60
2019-05-01T14:59:19.982Z,19.60
2019-05-01T15:01:47.291Z,19.30
2019-05-01T15:04:15.307Z,19.20
2019-05-01T15:06:41.973Z,19.10
2019-05-01T15:09:08.689Z,19.40
2019-05-01T15:11:35.306Z,19.70
2019-05-01T15:14:05.569Z,19.90
2019-05-01T15:16:39.756Z,19.20
2019-05-01T15:19:10.873Z,19.10
2019-05-01T15:21:37.346Z,19.60
2019-05-01T15:24:04.829Z,20.20
2019-05-01T15:26:31.340Z,20.40
2019-05-01T15:28:57.999Z,20.50
2019-05-01T15:31:24.618Z,19.90
2019-05-01T15:33:52.103Z,20.00
2019-05-01T15:36:18.913Z,19.90
2019-05-01T15:38:46.192Z,19.70
2019-05-01T15:41:31.873Z,19.40
2019-05-01T15:44:02.865Z,19.10
2019-05-01T15:46:29.529Z,18.90
2019-05-01T15:48:55.798Z,18.50
2019-05-01T15:51:22.040Z,18.20
2019-05-01T15:53:48.529Z,18.10
2019-05-01T15:56:14.789Z,18.00
2019-05-01T15:58:41.438Z,18.00
2019-05-01T16:01:08.070Z,18.00
2019-05-01T16:03:34.689Z,17.90
2019-05-01T16:06:01.314Z,17.80
2019-05-01T16:08:28.098Z,17.70
2019-05-01T16:10:56.293Z,17.50
2019-05-01T16:13:22.543Z,17.60
2019-05-01T16:15:49.174Z,17.60
2019-05-01T16:18:15.429Z,17.50
2019-05-01T16:20:41.650Z,17.40
2019-05-01T16:23:07.980Z,17.30
2019-05-01T16:25:34.229Z,17.20
2019-05-01T16:28:00.444Z,17.20
2019-05-01T16:30:27.432Z,17.20
2019-05-01T16:32:53.707Z,17.10
2019-05-01T16:35:20.119Z,17.10
2019-05-01T16:37:46.437Z,17.20
2019-05-01T16:40:17.450Z,17.10
2019-05-01T16:42:43.668Z,17.10
2019-05-01T16:45:10.523Z,17.20
2019-05-01T16:47:37.869Z,17.10
2019-05-01T16:50:06.014Z,17.00
2019-05-01T16:52:33.663Z,16.80
2019-05-01T16:55:00.259Z,16.70
2019-05-01T16:57:27.015Z,16.60
2019-05-01T16:59:53.613Z,16.70
2019-05-01T17:02:22.268Z,16.60
2019-05-01T17:04:50.733Z,16.50
2019-05-01T17:07:34.133Z,16.50
2019-05-01T17:10:09.033Z,16.40
2019-05-01T17:15:28.936Z,16.20
2019-05-01T17:17:55.312Z,16.10
2019-05-01T17:20:24.342Z,16.00
2019-05-01T17:22:51.918Z,16.00
2019-05-01T17:25:18.648Z,15.90
2019-05-01T17:27:45.140Z,15.70
2019-05-01T17:30:14.159Z,15.60
2019-05-01T17:32:44.245Z,15.60
2019-05-01T17:35:09.336Z,15.50
2019-05-01T17:37:35.799Z,15.30
2019-05-01T17:40:04.765Z,15.20
2019-05-01T17:42:32.936Z,15.20
2019-05-01T17:44:59.726Z,15.10
2019-05-01T17:47:27.642Z,15.10
2019-05-01T17:49:54.274Z,15.10
2019-05-01T17:52:20.933Z,15.10
2019-05-01T17:54:47.548Z,15.00
2019-05-01T17:57:14.217Z,14.90
2019-05-01T17:59:40.869Z,14.90
2019-05-01T18:02:10.221Z,14.90
2019-05-01T18:04:57.991Z,14.90
2019-05-01T18:07:28.740Z,14.90
2019-05-01T18:09:55.735Z,14.80
2019-05-01T18:12:23.295Z,14.80
2019-05-01T18:14:50.146Z,14.70
2019-05-01T18:17:17.012Z,14.50
2019-05-01T18:19:43.245Z,14.40
2019-05-01T18:22:11.549Z,14.30
2019-05-01T18:24:39.675Z,14.30
2019-05-01T18:27:07.916Z,14.20
2019-05-01T18:29:45.181Z,14.20
2019-05-01T18:32:13.808Z,14.10
2019-05-01T18:34:40.053Z,14.10
2019-05-01T18:37:14.876Z,14.10
2019-05-01T18:39:42.414Z,14.00
2019-05-01T18:42:10.736Z,14.00
2019-05-01T18:44:37.281Z,14.00
2019-05-01T18:47:04.220Z,14.00
2019-05-01T18:49:30.656Z,14.00
2019-05-01T18:51:57.164Z,13.80
2019-05-01T18:54:23.551Z,13.70
2019-05-01T18:56:50.141Z,13.70
2019-05-01T18:59:16.720Z,13.70
2019-05-01T19:01:43.887Z,13.50
2019-05-01T19:04:11.200Z,13.60
2019-05-01T19:06:41.357Z,13.50
2019-05-01T19:09:14.840Z,13.40
2019-05-01T19:11:36.624Z,13.20
2019-05-01T19:14:03.477Z,13.10
2019-05-01T19:16:30.244Z,13.10
2019-05-01T19:18:56.883Z,13.10
2019-05-01T19:21:24.103Z,13.00
2019-05-01T19:23:50.468Z,13.00
2019-05-01T19:26:17.977Z,12.80
2019-05-01T19:28:44.273Z,12.60
2019-05-01T19:31:10.506Z,12.50
2019-05-01T19:33:37.018Z,12.40
2019-05-01T19:36:08.077Z,12.40
2019-05-01T19:38:34.919Z,12.40
2019-05-01T19:41:03.591Z,12.50
2019-05-01T19:43:29.581Z,12.30
2019-05-01T19:45:56.060Z,12.40
2019-05-01T19:48:22.272Z,12.50
2019-05-01T19:50:49.606Z,12.50
2019-05-01T19:53:16.362Z,12.50
2019-05-01T19:55:44.898Z,12.40
2019-05-01T19:58:11.407Z,12.30
2019-05-01T20:00:50.836Z,12.20
2019-05-01T20:03:17.180Z,12.20
2019-05-01T20:05:43.779Z,12.20
2019-05-01T20:08:10.437Z,12.20
2019-05-01T20:10:36.740Z,12.20
2019-05-01T20:13:07.135Z,12.40
2019-05-01T20:15:31.647Z,12.20
2019-05-01T20:17:57.906Z,12.20
2019-05-01T20:20:24.424Z,12.10
2019-05-01T20:22:53.112Z,12.00
2019-05-01T20:25:21.108Z,12.00
2019-05-01T20:27:52.886Z,12.00
2019-05-01T20:30:16.356Z,11.90
2019-05-01T20:32:43.040Z,11.80
2019-05-01T20:35:09.725Z,11.70
2019-05-01T20:37:35.928Z,11.70
2019-05-01T20:40:11.454Z,11.60
2019-05-01T20:42:32.868Z,11.70
2019-05-01T20:45:05.501Z,11.50
2019-05-01T20:47:34.815Z,11.60
2019-05-01T20:49:55.967Z,11.40
2019-05-01T20:52:22.264Z,11.30
2019-05-01T20:54:49.059Z,11.30
2019-05-01T20:57:43.114Z,11.30
2019-05-01T21:00:18.634Z,11.20
2019-05-01T21:02:45.525Z,11.40
2019-05-01T21:05:19.417Z,11.40
2019-05-01T21:07:47.793Z,11.40
2019-05-01T21:10:24.504Z,11.20
2019-05-01T21:12:42.890Z,11.20
2019-05-01T21:15:09.688Z,10.90
2019-05-01T21:17:36.121Z,10.80
2019-05-01T21:20:04.153Z,10.90
2019-05-01T21:22:30.623Z,11.10
2019-05-01T21:24:57.248Z,11.10
2019-05-01T21:27:24.331Z,11.10
2019-05-01T21:29:50.919Z,11.10
2019-05-01T21:32:18.323Z,11.00
2019-05-01T21:34:45.435Z,11.10
2019-05-01T21:37:12.076Z,11.10
2019-05-01T21:39:38.320Z,11.10
2019-05-01T21:42:11.317Z,11.10
2019-05-01T21:44:33.282Z,10.80
2019-05-01T21:46:59.843Z,10.60
2019-05-01T21:49:28.628Z,10.50
2019-05-01T21:51:54.383Z,10.40
2019-05-01T21:54:22.021Z,10.40
2019-05-01T21:56:48.500Z,10.60
2019-05-01T21:59:15.172Z,10.70
2019-05-01T22:01:41.461Z,10.80
2019-05-01T22:04:07.988Z,10.80
2019-05-01T22:06:34.605Z,10.80
2019-05-01T22:09:01.082Z,10.80
2019-05-01T22:11:27.673Z,10.70
2019-05-01T22:13:55.092Z,10.60
2019-05-01T22:16:27.050Z,10.70
2019-05-01T22:18:55.656Z,10.90
2019-05-01T22:21:29.931Z,11.10
2019-05-01T22:23:58.068Z,11.10
2019-05-01T22:26:26.500Z,11.10
2019-05-01T22:28:55.042Z,10.90
2019-05-01T22:31:27.128Z,10.70
2019-05-01T22:34:04.163Z,10.80
2019-05-01T22:36:30.813Z,10.70
2019-05-01T22:38:57.392Z,10.50
2019-05-01T22:41:23.997Z,10.40
2019-05-01T22:43:50.255Z,10.30
2019-05-01T22:46:18.458Z,10.40
2019-05-01T22:48:44.756Z,10.40
2019-05-01T22:51:12.889Z,10.50
2019-05-01T22:53:39.229Z,10.60
2019-05-01T22:56:05.487Z,10.60
2019-05-01T22:58:31.706Z,10.60
2019-05-01T23:00:59.980Z,10.70
2019-05-01T23:03:41.143Z,10.80
2019-05-01T23:06:09.712Z,10.80
2019-05-01T23:08:36.468Z,10.80
2019-05-01T23:11:03.130Z,10.90
2019-05-01T23:13:29.580Z,10.80
2019-05-01T23:15:58.047Z,10.80
2019-05-01T23:18:24.501Z,10.60
2019-05-01T23:20:51.495Z,10.40
2019-05-01T23:23:17.846Z,10.40
2019-05-01T23:25:44.404Z,10.30
2019-05-01T23:28:10.726Z,10.20
2019-05-01T23:30:37.371Z,10.30
2019-05-01T23:33:03.886Z,10.30
2019-05-01T23:35:30.136Z,10.40
2019-05-01T23:37:56.752Z,10.40
2019-05-01T23:40:23.075Z,10.30
2019-05-01T23:42:52.600Z,10.40
2019-05-01T23:45:17.992Z,10.40
2019-05-01T23:47:44.556Z,10.50
2019-05-01T23:50:11.404Z,10.50
2019-05-01T23:52:38.744Z,10.60
2019-05-01T23:55:06.684Z,10.50
2019-05-01T23:57:33.128Z,10.60
2019-05-01T23:59:59.388Z,10.40
